sensor_id;sensor_type;location;lat;lon;timestamp;P1;durP1;ratioP1;P2;durP2;ratioP2
49852;SDS011;35751;48.072;11.688;2023-07-29T00:00:42;4.22;;;3.17;;
49852;SDS011;35751;48.072;11.688;2023-07-29T00:03:08;4.40;;;3.33;;
49852;SDS011;35751;48.072;11.688;2023-07-29T00:05:34;5.45;;;4.28;;
49852;SDS011;35751;48.072;11.688;2023-07-29T00:07:59;7.07;;;4.18;;
49852;SDS011;35751;48.072;11.688;2023-07-29T00:10:25;5.80;;;3.17;;
49852;SDS011;35751;48.072;11.688;2023-07-29T00:12:51;5.70;;;4.00;;
49852;SDS011;35751;48.072;11.688;2023-07-29T00:15:36;5.30;;;3.63;;
49852;SDS011;35751;48.072;11.688;2023-07-29T00:18:02;5.82;;;3.38;;
49852;SDS011;35751;48.072;11.688;2023-07-29T00:20:27;4.28;;;3.88;;
49852;SDS011;35751;48.072;11.688;2023-07-29T00:22:53;5.05;;;3.95;;
49852;SDS011;35751;48.072;11.688;2023-07-29T00:25:20;4.18;;;3.05;;
49852;SDS011;35751;48.072;11.688;2023-07-29T00:27:46;5.90;;;4.10;;
49852;SDS011;35751;48.072;11.688;2023-07-29T00:30:11;4.93;;;3.58;;
49852;SDS011;35751;48.072;11.688;2023-07-29T00:32:36;4.65;;;3.45;;
49852;SDS011;35751;48.072;11.688;2023-07-29T00:35:02;6.75;;;3.65;;
49852;SDS011;35751;48.072;11.688;2023-07-29T00:37:28;8.52;;;4.05;;
49852;SDS011;35751;48.072;11.688;2023-07-29T00:39:55;5.82;;;3.63;;
49852;SDS011;35751;48.072;11.688;2023-07-29T00:42:20;6.47;;;3.60;;
49852;SDS011;35751;48.072;11.688;2023-07-29T00:44:45;6.20;;;3.90;;
49852;SDS011;35751;48.072;11.688;2023-07-29T00:47:11;9.40;;;3.90;;
49852;SDS011;35751;48.072;11.688;2023-07-29T00:49:36;7.40;;;3.72;;
49852;SDS011;35751;48.072;11.688;2023-07-29T00:52:02;5.53;;;3.53;;
49852;SDS011;35751;48.072;11.688;2023-07-29T00:54:27;6.28;;;3.53;;
49852;SDS011;35751;48.072;11.688;2023-07-29T00:56:53;4.22;;;3.55;;
49852;SDS011;35751;48.072;11.688;2023-07-29T00:59:18;6.65;;;4.07;;
49852;SDS011;35751;48.072;11.688;2023-07-29T01:01:44;6.93;;;4.05;;
49852;SDS011;35751;48.072;11.688;2023-07-29T01:04:09;10.05;;;4.13;;
49852;SDS011;35751;48.072;11.688;2023-07-29T01:14:44;6.22;;;4.43;;
49852;SDS011;35751;48.072;11.688;2023-07-29T01:17:13;5.50;;;3.65;;
49852;SDS011;35751;48.072;11.688;2023-07-29T01:22:10;4.47;;;3.33;;
49852;SDS011;35751;48.072;11.688;2023-07-29T01:24:36;5.63;;;3.95;;
49852;SDS011;35751;48.072;11.688;2023-07-29T01:27:02;7.05;;;4.63;;
49852;SDS011;35751;48.072;11.688;2023-07-29T01:29:29;6.30;;;4.00;;
49852;SDS011;35751;48.072;11.688;2023-07-29T01:31:56;4.90;;;3.88;;
49852;SDS011;35751;48.072;11.688;2023-07-29T01:34:29;5.72;;;4.55;;
49852;SDS011;35751;48.072;11.688;2023-07-29T01:36:55;6.65;;;4.00;;
49852;SDS011;35751;48.072;11.688;2023-07-29T01:39:22;5.80;;;3.97;;
49852;SDS011;35751;48.072;11.688;2023-07-29T01:41:49;6.72;;;3.90;;
49852;SDS011;35751;48.072;11.688;2023-07-29T01:44:14;6.95;;;4.00;;
49852;SDS011;35751;48.072;11.688;2023-07-29T01:46:40;7.18;;;4.60;;
49852;SDS011;35751;48.072;11.688;2023-07-29T01:58:34;6.68;;;4.20;;
49852;SDS011;35751;48.072;11.688;2023-07-29T02:00:59;8.68;;;4.43;;
49852;SDS011;35751;48.072;11.688;2023-07-29T02:03:25;4.28;;;3.80;;
49852;SDS011;35751;48.072;11.688;2023-07-29T02:05:50;6.13;;;4.47;;
49852;SDS011;35751;48.072;11.688;2023-07-29T02:08:15;7.25;;;5.10;;
49852;SDS011;35751;48.072;11.688;2023-07-29T02:10:41;5.35;;;3.90;;
49852;SDS011;35751;48.072;11.688;2023-07-29T02:13:08;6.38;;;4.53;;
49852;SDS011;35751;48.072;11.688;2023-07-29T02:15:34;5.88;;;4.18;;
49852;SDS011;35751;48.072;11.688;2023-07-29T02:17:59;7.10;;;4.50;;
49852;SDS011;35751;48.072;11.688;2023-07-29T02:20:26;5.75;;;4.28;;
49852;SDS011;35751;48.072;11.688;2023-07-29T02:22:51;7.05;;;3.90;;
49852;SDS011;35751;48.072;11.688;2023-07-29T02:25:16;6.00;;;4.22;;
49852;SDS011;35751;48.072;11.688;2023-07-29T02:27:48;6.30;;;4.10;;
49852;SDS011;35751;48.072;11.688;2023-07-29T02:30:13;6.28;;;4.10;;
49852;SDS011;35751;48.072;11.688;2023-07-29T02:32:39;4.80;;;3.90;;
49852;SDS011;35751;48.072;11.688;2023-07-29T02:35:04;7.43;;;4.53;;
49852;SDS011;35751;48.072;11.688;2023-07-29T02:37:30;6.78;;;4.30;;
49852;SDS011;35751;48.072;11.688;2023-07-29T02:39:55;6.93;;;4.10;;
49852;SDS011;35751;48.072;11.688;2023-07-29T02:42:21;6.60;;;3.72;;
49852;SDS011;35751;48.072;11.688;2023-07-29T02:44:46;5.65;;;3.72;;
49852;SDS011;35751;48.072;11.688;2023-07-29T02:47:12;5.05;;;3.72;;
49852;SDS011;35751;48.072;11.688;2023-07-29T02:49:37;5.00;;;3.60;;
49852;SDS011;35751;48.072;11.688;2023-07-29T02:52:03;6.32;;;4.05;;
49852;SDS011;35751;48.072;11.688;2023-07-29T02:54:28;5.70;;;3.88;;
49852;SDS011;35751;48.072;11.688;2023-07-29T02:56:54;5.47;;;3.42;;
49852;SDS011;35751;48.072;11.688;2023-07-29T02:59:19;6.03;;;3.88;;
49852;SDS011;35751;48.072;11.688;2023-07-29T03:01:45;5.25;;;3.25;;
49852;SDS011;35751;48.072;11.688;2023-07-29T03:04:10;5.32;;;3.80;;
49852;SDS011;35751;48.072;11.688;2023-07-29T03:06:38;6.03;;;4.40;;
49852;SDS011;35751;48.072;11.688;2023-07-29T03:09:03;6.72;;;4.03;;
49852;SDS011;35751;48.072;11.688;2023-07-29T03:11:28;5.13;;;4.03;;
49852;SDS011;35751;48.072;11.688;2023-07-29T03:13:54;5.28;;;3.97;;
49852;SDS011;35751;48.072;11.688;2023-07-29T03:16:19;4.68;;;3.30;;
49852;SDS011;35751;48.072;11.688;2023-07-29T03:18:44;8.45;;;3.80;;
49852;SDS011;35751;48.072;11.688;2023-07-29T03:21:10;5.55;;;4.38;;
49852;SDS011;35751;48.072;11.688;2023-07-29T03:23:42;5.07;;;3.35;;
49852;SDS011;35751;48.072;11.688;2023-07-29T03:26:07;5.75;;;3.63;;
49852;SDS011;35751;48.072;11.688;2023-07-29T03:28:37;5.00;;;3.50;;
49852;SDS011;35751;48.072;11.688;2023-07-29T03:31:04;5.90;;;3.80;;
49852;SDS011;35751;48.072;11.688;2023-07-29T03:33:29;7.68;;;5.15;;
49852;SDS011;35751;48.072;11.688;2023-07-29T03:35:54;4.75;;;3.80;;
49852;SDS011;35751;48.072;11.688;2023-07-29T03:38:20;4.80;;;3.22;;
49852;SDS011;35751;48.072;11.688;2023-07-29T03:40:45;5.63;;;3.67;;
49852;SDS011;35751;48.072;11.688;2023-07-29T03:43:11;5.57;;;3.25;;
49852;SDS011;35751;48.072;11.688;2023-07-29T03:45:36;5.13;;;3.05;;
49852;SDS011;35751;48.072;11.688;2023-07-29T03:48:03;4.88;;;3.03;;
49852;SDS011;35751;48.072;11.688;2023-07-29T03:50:29;6.28;;;3.65;;
49852;SDS011;35751;48.072;11.688;2023-07-29T03:52:55;4.75;;;3.55;;
49852;SDS011;35751;48.072;11.688;2023-07-29T03:55:20;6.15;;;3.28;;
49852;SDS011;35751;48.072;11.688;2023-07-29T03:57:46;6.25;;;3.22;;
49852;SDS011;35751;48.072;11.688;2023-07-29T04:00:11;5.50;;;3.25;;
49852;SDS011;35751;48.072;11.688;2023-07-29T04:02:37;6.30;;;3.22;;
49852;SDS011;35751;48.072;11.688;2023-07-29T04:05:03;6.75;;;4.20;;
49852;SDS011;35751;48.072;11.688;2023-07-29T04:07:30;6.30;;;3.30;;
49852;SDS011;35751;48.072;11.688;2023-07-29T04:09:55;4.28;;;3.22;;
49852;SDS011;35751;48.072;11.688;2023-07-29T04:12:21;7.80;;;3.58;;
49852;SDS011;35751;48.072;11.688;2023-07-29T04:14:47;4.15;;;3.00;;
49852;SDS011;35751;48.072;11.688;2023-07-29T04:17:12;4.75;;;3.13;;
49852;SDS011;35751;48.072;11.688;2023-07-29T04:19:38;4.60;;;3.22;;
49852;SDS011;35751;48.072;11.688;2023-07-29T04:22:14;4.30;;;3.20;;
49852;SDS011;35751;48.072;11.688;2023-07-29T04:48:49;3.95;;;3.38;;
49852;SDS011;35751;48.072;11.688;2023-07-29T04:51:14;4.32;;;3.03;;
49852;SDS011;35751;48.072;11.688;2023-07-29T04:56:40;3.33;;;2.72;;
49852;SDS011;35751;48.072;11.688;2023-07-29T04:59:25;3.10;;;2.75;;
49852;SDS011;35751;48.072;11.688;2023-07-29T05:01:51;4.28;;;2.75;;
49852;SDS011;35751;48.072;11.688;2023-07-29T05:04:22;6.88;;;2.92;;
49852;SDS011;35751;48.072;11.688;2023-07-29T05:07:13;3.92;;;2.75;;
49852;SDS011;35751;48.072;11.688;2023-07-29T05:09:53;2.67;;;2.10;;
49852;SDS011;35751;48.072;11.688;2023-07-29T05:12:21;3.60;;;3.03;;
49852;SDS011;35751;48.072;11.688;2023-07-29T05:14:49;3.80;;;2.90;;
49852;SDS011;35751;48.072;11.688;2023-07-29T05:17:14;4.13;;;2.97;;
49852;SDS011;35751;48.072;11.688;2023-07-29T05:19:39;2.97;;;2.30;;
49852;SDS011;35751;48.072;11.688;2023-07-29T05:22:05;3.80;;;2.65;;
49852;SDS011;35751;48.072;11.688;2023-07-29T05:24:30;4.97;;;3.10;;
49852;SDS011;35751;48.072;11.688;2023-07-29T05:26:56;3.42;;;2.28;;
49852;SDS011;35751;48.072;11.688;2023-07-29T05:29:21;3.08;;;2.60;;
49852;SDS011;35751;48.072;11.688;2023-07-29T05:31:46;6.15;;;2.42;;
49852;SDS011;35751;48.072;11.688;2023-07-29T05:34:12;4.38;;;2.75;;
49852;SDS011;35751;48.072;11.688;2023-07-29T05:36:37;2.67;;;2.28;;
49852;SDS011;35751;48.072;11.688;2023-07-29T05:39:04;2.95;;;1.80;;
49852;SDS011;35751;48.072;11.688;2023-07-29T05:41:32;4.25;;;2.22;;
49852;SDS011;35751;48.072;11.688;2023-07-29T05:43:58;3.40;;;2.38;;
49852;SDS011;35751;48.072;11.688;2023-07-29T05:46:23;3.10;;;1.77;;
49852;SDS011;35751;48.072;11.688;2023-07-29T05:48:48;3.30;;;2.60;;
49852;SDS011;35751;48.072;11.688;2023-07-29T05:51:14;1.58;;;1.23;;
49852;SDS011;35751;48.072;11.688;2023-07-29T05:53:39;4.85;;;1.75;;
49852;SDS011;35751;48.072;11.688;2023-07-29T05:56:04;3.83;;;1.45;;
49852;SDS011;35751;48.072;11.688;2023-07-29T05:58:31;2.67;;;1.80;;
49852;SDS011;35751;48.072;11.688;2023-07-29T06:01:00;3.47;;;1.85;;
49852;SDS011;35751;48.072;11.688;2023-07-29T06:03:25;2.35;;;1.63;;
49852;SDS011;35751;48.072;11.688;2023-07-29T06:05:50;2.08;;;1.80;;
49852;SDS011;35751;48.072;11.688;2023-07-29T06:08:16;3.67;;;1.80;;
49852;SDS011;35751;48.072;11.688;2023-07-29T06:10:41;2.10;;;1.58;;
49852;SDS011;35751;48.072;11.688;2023-07-29T06:13:15;2.92;;;2.05;;
49852;SDS011;35751;48.072;11.688;2023-07-29T06:15:41;2.60;;;1.60;;
49852;SDS011;35751;48.072;11.688;2023-07-29T06:18:06;3.35;;;2.30;;
49852;SDS011;35751;48.072;11.688;2023-07-29T06:20:32;3.67;;;1.77;;
49852;SDS011;35751;48.072;11.688;2023-07-29T06:22:57;2.40;;;1.77;;
49852;SDS011;35751;48.072;11.688;2023-07-29T06:25:22;3.33;;;1.90;;
49852;SDS011;35751;48.072;11.688;2023-07-29T06:27:48;3.60;;;1.98;;
49852;SDS011;35751;48.072;11.688;2023-07-29T06:30:13;4.13;;;3.03;;
49852;SDS011;35751;48.072;11.688;2023-07-29T06:32:38;2.90;;;2.00;;
49852;SDS011;35751;48.072;11.688;2023-07-29T06:35:04;4.07;;;2.42;;
49852;SDS011;35751;48.072;11.688;2023-07-29T06:37:29;7.28;;;2.33;;
49852;SDS011;35751;48.072;11.688;2023-07-29T06:39:55;2.60;;;2.22;;
49852;SDS011;35751;48.072;11.688;2023-07-29T06:42:20;4.00;;;2.67;;
49852;SDS011;35751;48.072;11.688;2023-07-29T06:44:45;5.90;;;2.97;;
49852;SDS011;35751;48.072;11.688;2023-07-29T06:47:11;3.92;;;1.83;;
49852;SDS011;35751;48.072;11.688;2023-07-29T06:49:37;4.25;;;2.05;;
49852;SDS011;35751;48.072;11.688;2023-07-29T06:52:02;3.85;;;3.35;;
49852;SDS011;35751;48.072;11.688;2023-07-29T06:54:28;2.83;;;2.03;;
49852;SDS011;35751;48.072;11.688;2023-07-29T06:56:53;3.70;;;2.75;;
49852;SDS011;35751;48.072;11.688;2023-07-29T06:59:18;3.40;;;2.30;;
49852;SDS011;35751;48.072;11.688;2023-07-29T07:01:44;3.05;;;2.53;;
49852;SDS011;35751;48.072;11.688;2023-07-29T07:04:09;10.77;;;2.83;;
49852;SDS011;35751;48.072;11.688;2023-07-29T07:06:34;2.67;;;2.08;;
49852;SDS011;35751;48.072;11.688;2023-07-29T07:09:00;2.88;;;2.10;;
49852;SDS011;35751;48.072;11.688;2023-07-29T07:11:25;3.35;;;2.35;;
49852;SDS011;35751;48.072;11.688;2023-07-29T07:13:50;3.08;;;2.08;;
49852;SDS011;35751;48.072;11.688;2023-07-29T07:16:16;6.32;;;2.30;;
49852;SDS011;35751;48.072;11.688;2023-07-29T07:18:45;3.17;;;2.03;;
49852;SDS011;35751;48.072;11.688;2023-07-29T07:21:10;5.45;;;2.55;;
49852;SDS011;35751;48.072;11.688;2023-07-29T07:23:35;3.95;;;2.33;;
49852;SDS011;35751;48.072;11.688;2023-07-29T07:26:01;3.97;;;2.78;;
49852;SDS011;35751;48.072;11.688;2023-07-29T07:28:26;3.00;;;2.70;;
49852;SDS011;35751;48.072;11.688;2023-07-29T07:30:52;5.03;;;2.20;;
49852;SDS011;35751;48.072;11.688;2023-07-29T07:33:17;3.83;;;2.38;;
49852;SDS011;35751;48.072;11.688;2023-07-29T07:35:43;2.83;;;2.17;;
49852;SDS011;35751;48.072;11.688;2023-07-29T07:38:08;4.15;;;2.45;;
49852;SDS011;35751;48.072;11.688;2023-07-29T07:40:35;3.85;;;2.80;;
49852;SDS011;35751;48.072;11.688;2023-07-29T07:43:00;3.58;;;2.75;;
49852;SDS011;35751;48.072;11.688;2023-07-29T07:45:26;7.30;;;3.05;;
49852;SDS011;35751;48.072;11.688;2023-07-29T07:47:55;5.07;;;3.10;;
49852;SDS011;35751;48.072;11.688;2023-07-29T07:50:21;3.90;;;2.50;;
49852;SDS011;35751;48.072;11.688;2023-07-29T07:52:46;5.05;;;3.17;;
49852;SDS011;35751;48.072;11.688;2023-07-29T07:55:12;5.07;;;3.30;;
49852;SDS011;35751;48.072;11.688;2023-07-29T07:57:37;3.83;;;3.03;;
49852;SDS011;35751;48.072;11.688;2023-07-29T08:00:03;3.80;;;3.17;;
49852;SDS011;35751;48.072;11.688;2023-07-29T08:02:29;12.10;;;4.47;;
49852;SDS011;35751;48.072;11.688;2023-07-29T08:04:55;6.60;;;3.65;;
49852;SDS011;35751;48.072;11.688;2023-07-29T08:14:04;3.80;;;3.03;;
49852;SDS011;35751;48.072;11.688;2023-07-29T08:16:29;5.15;;;4.00;;
49852;SDS011;35751;48.072;11.688;2023-07-29T08:18:55;3.95;;;2.85;;
49852;SDS011;35751;48.072;11.688;2023-07-29T08:21:20;6.97;;;3.53;;
49852;SDS011;35751;48.072;11.688;2023-07-29T08:23:46;7.78;;;4.18;;
49852;SDS011;35751;48.072;11.688;2023-07-29T08:26:11;5.93;;;4.03;;
49852;SDS011;35751;48.072;11.688;2023-07-29T08:28:40;5.28;;;3.63;;
49852;SDS011;35751;48.072;11.688;2023-07-29T08:31:05;6.13;;;3.35;;
49852;SDS011;35751;48.072;11.688;2023-07-29T08:33:31;5.28;;;2.92;;
49852;SDS011;35751;48.072;11.688;2023-07-29T08:36:07;19.45;;;5.82;;
49852;SDS011;35751;48.072;11.688;2023-07-29T08:38:33;4.50;;;3.53;;
49852;SDS011;35751;48.072;11.688;2023-07-29T08:43:39;3.72;;;2.83;;
49852;SDS011;35751;48.072;11.688;2023-07-29T08:46:14;3.47;;;2.72;;
49852;SDS011;35751;48.072;11.688;2023-07-29T08:48:41;4.13;;;3.13;;
49852;SDS011;35751;48.072;11.688;2023-07-29T08:51:08;4.50;;;2.58;;
49852;SDS011;35751;48.072;11.688;2023-07-29T08:53:35;14.68;;;4.13;;
49852;SDS011;35751;48.072;11.688;2023-07-29T08:56:01;4.68;;;3.42;;
49852;SDS011;35751;48.072;11.688;2023-07-29T08:58:27;3.70;;;2.70;;
49852;SDS011;35751;48.072;11.688;2023-07-29T09:00:52;3.92;;;2.60;;
49852;SDS011;35751;48.072;11.688;2023-07-29T09:03:21;3.67;;;2.55;;
49852;SDS011;35751;48.072;11.688;2023-07-29T09:05:46;3.58;;;2.97;;
49852;SDS011;35751;48.072;11.688;2023-07-29T09:08:12;5.57;;;3.03;;
49852;SDS011;35751;48.072;11.688;2023-07-29T09:10:38;3.60;;;2.72;;
49852;SDS011;35751;48.072;11.688;2023-07-29T09:13:04;3.70;;;2.83;;
49852;SDS011;35751;48.072;11.688;2023-07-29T09:15:30;5.50;;;3.05;;
49852;SDS011;35751;48.072;11.688;2023-07-29T09:17:58;3.55;;;2.53;;
49852;SDS011;35751;48.072;11.688;2023-07-29T09:20:24;3.97;;;3.28;;
49852;SDS011;35751;48.072;11.688;2023-07-29T09:22:58;4.85;;;2.85;;
49852;SDS011;35751;48.072;11.688;2023-07-29T09:25:29;3.75;;;2.42;;
49852;SDS011;35751;48.072;11.688;2023-07-29T09:28:01;6.43;;;3.28;;
49852;SDS011;35751;48.072;11.688;2023-07-29T09:30:37;6.78;;;3.45;;
49852;SDS011;35751;48.072;11.688;2023-07-29T09:33:12;4.00;;;2.88;;
49852;SDS011;35751;48.072;11.688;2023-07-29T09:35:53;4.43;;;2.47;;
49852;SDS011;35751;48.072;11.688;2023-07-29T09:38:38;3.80;;;3.08;;
49852;SDS011;35751;48.072;11.688;2023-07-29T09:41:23;4.72;;;2.88;;
49852;SDS011;35751;48.072;11.688;2023-07-29T09:44:02;4.78;;;2.47;;
49852;SDS011;35751;48.072;11.688;2023-07-29T09:46:32;6.03;;;2.53;;
49852;SDS011;35751;48.072;11.688;2023-07-29T09:49:02;4.97;;;2.95;;
49852;SDS011;35751;48.072;11.688;2023-07-29T09:51:29;4.88;;;2.50;;
49852;SDS011;35751;48.072;11.688;2023-07-29T09:53:57;3.97;;;2.83;;
49852;SDS011;35751;48.072;11.688;2023-07-29T09:56:30;4.82;;;3.00;;
49852;SDS011;35751;48.072;11.688;2023-07-29T09:58:56;5.75;;;2.83;;
49852;SDS011;35751;48.072;11.688;2023-07-29T10:01:30;4.55;;;2.83;;
49852;SDS011;35751;48.072;11.688;2023-07-29T10:03:56;3.95;;;2.83;;
49852;SDS011;35751;48.072;11.688;2023-07-29T10:06:25;5.30;;;3.28;;
49852;SDS011;35751;48.072;11.688;2023-07-29T10:08:50;14.32;;;4.05;;
49852;SDS011;35751;48.072;11.688;2023-07-29T10:11:16;5.88;;;2.78;;
49852;SDS011;35751;48.072;11.688;2023-07-29T10:13:51;2.95;;;2.50;;
49852;SDS011;35751;48.072;11.688;2023-07-29T10:16:16;3.55;;;2.67;;
49852;SDS011;35751;48.072;11.688;2023-07-29T10:18:43;3.95;;;2.88;;
49852;SDS011;35751;48.072;11.688;2023-07-29T10:21:08;5.15;;;3.00;;
49852;SDS011;35751;48.072;11.688;2023-07-29T10:23:37;3.13;;;2.83;;
49852;SDS011;35751;48.072;11.688;2023-07-29T10:26:14;3.78;;;2.25;;
49852;SDS011;35751;48.072;11.688;2023-07-29T10:28:41;3.50;;;2.55;;
49852;SDS011;35751;48.072;11.688;2023-07-29T10:31:12;3.13;;;2.47;;
49852;SDS011;35751;48.072;11.688;2023-07-29T10:33:38;4.28;;;2.85;;
49852;SDS011;35751;48.072;11.688;2023-07-29T10:36:06;4.68;;;2.38;;
49852;SDS011;35751;48.072;11.688;2023-07-29T10:38:38;3.17;;;2.88;;
49852;SDS011;35751;48.072;11.688;2023-07-29T10:41:03;3.22;;;2.42;;
49852;SDS011;35751;48.072;11.688;2023-07-29T10:45:55;4.13;;;3.25;;
49852;SDS011;35751;48.072;11.688;2023-07-29T10:56:24;4.55;;;2.88;;
49852;SDS011;35751;48.072;11.688;2023-07-29T10:58:57;5.95;;;3.50;;
49852;SDS011;35751;48.072;11.688;2023-07-29T11:01:44;3.70;;;2.67;;
49852;SDS011;35751;48.072;11.688;2023-07-29T11:04:26;3.80;;;2.67;;
49852;SDS011;35751;48.072;11.688;2023-07-29T11:12:35;4.22;;;2.50;;
49852;SDS011;35751;48.072;11.688;2023-07-29T11:20:24;4.00;;;2.72;;
49852;SDS011;35751;48.072;11.688;2023-07-29T11:22:54;4.63;;;3.60;;
49852;SDS011;35751;48.072;11.688;2023-07-29T11:25:29;3.67;;;3.25;;
49852;SDS011;35751;48.072;11.688;2023-07-29T11:27:59;3.88;;;3.33;;
49852;SDS011;35751;48.072;11.688;2023-07-29T11:30:25;4.45;;;2.67;;
49852;SDS011;35751;48.072;11.688;2023-07-29T11:32:54;3.20;;;2.90;;
49852;SDS011;35751;48.072;11.688;2023-07-29T11:35:20;4.90;;;3.22;;
49852;SDS011;35751;48.072;11.688;2023-07-29T11:37:49;3.40;;;3.10;;
49852;SDS011;35751;48.072;11.688;2023-07-29T11:42:42;4.00;;;3.03;;
49852;SDS011;35751;48.072;11.688;2023-07-29T11:45:08;3.72;;;2.50;;
49852;SDS011;35751;48.072;11.688;2023-07-29T11:47:36;2.38;;;1.85;;
49852;SDS011;35751;48.072;11.688;2023-07-29T11:50:02;1.83;;;1.63;;
49852;SDS011;35751;48.072;11.688;2023-07-29T11:52:30;2.75;;;2.35;;
49852;SDS011;35751;48.072;11.688;2023-07-29T11:54:56;2.80;;;1.95;;
49852;SDS011;35751;48.072;11.688;2023-07-29T11:57:22;4.05;;;2.35;;
49852;SDS011;35751;48.072;11.688;2023-07-29T11:59:48;2.67;;;2.00;;
49852;SDS011;35751;48.072;11.688;2023-07-29T12:02:17;2.58;;;1.95;;
49852;SDS011;35751;48.072;11.688;2023-07-29T12:04:44;1.75;;;1.58;;
49852;SDS011;35751;48.072;11.688;2023-07-29T12:07:12;2.75;;;2.35;;
49852;SDS011;35751;48.072;11.688;2023-07-29T12:09:38;2.00;;;1.80;;
49852;SDS011;35751;48.072;11.688;2023-07-29T12:12:04;5.82;;;2.08;;
49852;SDS011;35751;48.072;11.688;2023-07-29T12:14:33;2.35;;;2.15;;
49852;SDS011;35751;48.072;11.688;2023-07-29T12:17:02;3.70;;;2.22;;
49852;SDS011;35751;48.072;11.688;2023-07-29T12:19:32;2.75;;;2.42;;
49852;SDS011;35751;48.072;11.688;2023-07-29T12:21:59;2.72;;;2.22;;
49852;SDS011;35751;48.072;11.688;2023-07-29T12:24:24;2.90;;;2.55;;
49852;SDS011;35751;48.072;11.688;2023-07-29T12:26:50;2.60;;;2.40;;
49852;SDS011;35751;48.072;11.688;2023-07-29T12:29:17;3.85;;;2.85;;
49852;SDS011;35751;48.072;11.688;2023-07-29T12:31:46;2.95;;;2.20;;
49852;SDS011;35751;48.072;11.688;2023-07-29T12:34:18;3.35;;;2.70;;
49852;SDS011;35751;48.072;11.688;2023-07-29T12:36:48;3.53;;;2.58;;
49852;SDS011;35751;48.072;11.688;2023-07-29T12:41:53;3.17;;;2.78;;
49852;SDS011;35751;48.072;11.688;2023-07-29T12:44:19;3.00;;;2.42;;
49852;SDS011;35751;48.072;11.688;2023-07-29T12:46:45;3.70;;;2.38;;
49852;SDS011;35751;48.072;11.688;2023-07-29T12:49:11;3.15;;;2.67;;
49852;SDS011;35751;48.072;11.688;2023-07-29T12:51:36;3.42;;;2.55;;
49852;SDS011;35751;48.072;11.688;2023-07-29T12:54:02;2.72;;;2.35;;
49852;SDS011;35751;48.072;11.688;2023-07-29T12:56:28;2.78;;;2.30;;
49852;SDS011;35751;48.072;11.688;2023-07-29T12:58:53;2.67;;;2.47;;
49852;SDS011;35751;48.072;11.688;2023-07-29T13:01:19;3.67;;;2.50;;
49852;SDS011;35751;48.072;11.688;2023-07-29T13:03:44;3.05;;;2.75;;
49852;SDS011;35751;48.072;11.688;2023-07-29T13:06:10;11.20;;;3.15;;
49852;SDS011;35751;48.072;11.688;2023-07-29T13:08:36;4.32;;;2.70;;
49852;SDS011;35751;48.072;11.688;2023-07-29T13:11:02;3.90;;;3.08;;
49852;SDS011;35751;48.072;11.688;2023-07-29T13:13:28;3.72;;;2.20;;
49852;SDS011;35751;48.072;11.688;2023-07-29T13:15:53;3.70;;;2.45;;
49852;SDS011;35751;48.072;11.688;2023-07-29T13:18:18;3.63;;;1.70;;
49852;SDS011;35751;48.072;11.688;2023-07-29T13:20:44;1.90;;;1.70;;
49852;SDS011;35751;48.072;11.688;2023-07-29T13:23:09;2.90;;;1.85;;
49852;SDS011;35751;48.072;11.688;2023-07-29T13:25:35;3.53;;;2.58;;
49852;SDS011;35751;48.072;11.688;2023-07-29T13:28:09;6.10;;;3.15;;
49852;SDS011;35751;48.072;11.688;2023-07-29T13:30:40;5.78;;;3.28;;
49852;SDS011;35751;48.072;11.688;2023-07-29T13:33:08;3.58;;;2.60;;
49852;SDS011;35751;48.072;11.688;2023-07-29T13:35:33;3.28;;;2.70;;
49852;SDS011;35751;48.072;11.688;2023-07-29T13:38:11;3.65;;;2.90;;
49852;SDS011;35751;48.072;11.688;2023-07-29T13:40:41;5.80;;;3.20;;
49852;SDS011;35751;48.072;11.688;2023-07-29T13:43:28;5.97;;;3.20;;
49852;SDS011;35751;48.072;11.688;2023-07-29T13:45:54;8.30;;;3.30;;
49852;SDS011;35751;48.072;11.688;2023-07-29T13:48:22;4.47;;;3.00;;
49852;SDS011;35751;48.072;11.688;2023-07-29T13:50:47;5.43;;;3.17;;
49852;SDS011;35751;48.072;11.688;2023-07-29T14:30:19;3.53;;;2.47;;
49852;SDS011;35751;48.072;11.688;2023-07-29T14:33:07;5.57;;;2.88;;
49852;SDS011;35751;48.072;11.688;2023-07-29T14:38:59;10.90;;;3.90;;
49852;SDS011;35751;48.072;11.688;2023-07-29T14:42:23;4.03;;;3.05;;
49852;SDS011;35751;48.072;11.688;2023-07-29T14:44:49;3.78;;;2.58;;
49852;SDS011;35751;48.072;11.688;2023-07-29T14:47:14;3.75;;;3.08;;
49852;SDS011;35751;48.072;11.688;2023-07-29T14:49:39;3.20;;;2.60;;
49852;SDS011;35751;48.072;11.688;2023-07-29T14:52:05;4.90;;;2.72;;
49852;SDS011;35751;48.072;11.688;2023-07-29T14:54:31;4.10;;;3.30;;
49852;SDS011;35751;48.072;11.688;2023-07-29T14:56:57;3.42;;;2.80;;
49852;SDS011;35751;48.072;11.688;2023-07-29T14:59:22;4.10;;;2.70;;
49852;SDS011;35751;48.072;11.688;2023-07-29T15:01:48;5.22;;;3.35;;
49852;SDS011;35751;48.072;11.688;2023-07-29T15:04:13;5.57;;;3.15;;
49852;SDS011;35751;48.072;11.688;2023-07-29T15:06:38;6.32;;;3.42;;
49852;SDS011;35751;48.072;11.688;2023-07-29T15:09:04;4.43;;;3.05;;
49852;SDS011;35751;48.072;11.688;2023-07-29T15:11:30;5.60;;;4.05;;
49852;SDS011;35751;48.072;11.688;2023-07-29T15:13:57;16.52;;;5.07;;
49852;SDS011;35751;48.072;11.688;2023-07-29T15:16:23;4.90;;;3.22;;
49852;SDS011;35751;48.072;11.688;2023-07-29T15:18:49;5.95;;;3.80;;
49852;SDS011;35751;48.072;11.688;2023-07-29T15:21:15;5.55;;;3.30;;
49852;SDS011;35751;48.072;11.688;2023-07-29T15:23:46;3.80;;;3.05;;
49852;SDS011;35751;48.072;11.688;2023-07-29T15:26:12;7.00;;;3.47;;
49852;SDS011;35751;48.072;11.688;2023-07-29T15:28:37;4.10;;;3.65;;
49852;SDS011;35751;48.072;11.688;2023-07-29T15:31:03;4.68;;;2.97;;
49852;SDS011;35751;48.072;11.688;2023-07-29T15:33:28;4.15;;;3.33;;
49852;SDS011;35751;48.072;11.688;2023-07-29T15:35:56;4.60;;;3.40;;
49852;SDS011;35751;48.072;11.688;2023-07-29T15:38:25;6.25;;;4.25;;
49852;SDS011;35751;48.072;11.688;2023-07-29T15:40:50;4.15;;;2.33;;
49852;SDS011;35751;48.072;11.688;2023-07-29T15:43:18;5.85;;;2.95;;
49852;SDS011;35751;48.072;11.688;2023-07-29T15:45:46;4.95;;;3.75;;
49852;SDS011;35751;48.072;11.688;2023-07-29T15:48:12;6.32;;;2.80;;
49852;SDS011;35751;48.072;11.688;2023-07-29T15:50:40;4.97;;;3.60;;
49852;SDS011;35751;48.072;11.688;2023-07-29T15:53:15;7.13;;;2.78;;
49852;SDS011;35751;48.072;11.688;2023-07-29T15:55:40;3.90;;;3.38;;
49852;SDS011;35751;48.072;11.688;2023-07-29T15:58:06;4.97;;;3.47;;
49852;SDS011;35751;48.072;11.688;2023-07-29T16:00:32;3.85;;;2.92;;
49852;SDS011;35751;48.072;11.688;2023-07-29T16:02:57;3.97;;;2.67;;
49852;SDS011;35751;48.072;11.688;2023-07-29T16:05:22;4.50;;;3.58;;
49852;SDS011;35751;48.072;11.688;2023-07-29T16:07:48;4.53;;;3.35;;
49852;SDS011;35751;48.072;11.688;2023-07-29T16:10:14;6.95;;;3.00;;
49852;SDS011;35751;48.072;11.688;2023-07-29T16:12:39;4.30;;;3.13;;
49852;SDS011;35751;48.072;11.688;2023-07-29T16:15:08;4.78;;;2.97;;
49852;SDS011;35751;48.072;11.688;2023-07-29T16:17:34;3.53;;;2.65;;
49852;SDS011;35751;48.072;11.688;2023-07-29T16:20:00;3.63;;;2.92;;
49852;SDS011;35751;48.072;11.688;2023-07-29T16:22:39;4.20;;;2.67;;
49852;SDS011;35751;48.072;11.688;2023-07-29T16:25:24;4.60;;;3.47;;
49852;SDS011;35751;48.072;11.688;2023-07-29T16:27:50;4.53;;;3.13;;
49852;SDS011;35751;48.072;11.688;2023-07-29T16:30:17;4.20;;;3.30;;
49852;SDS011;35751;48.072;11.688;2023-07-29T16:32:48;5.80;;;3.50;;
49852;SDS011;35751;48.072;11.688;2023-07-29T16:35:17;6.38;;;3.17;;
49852;SDS011;35751;48.072;11.688;2023-07-29T16:37:54;5.20;;;4.38;;